Tiempo atmosférico en la estación meteorológica de Espiel, Córdoba (465 m.)



Fecha
DESCASC
Temp. máxima en grados centígrados (hora)
DESCASC
Temp. mínima en grados centígrados (hora)
DESCASC
Temp. media en grados centígrados
DESCASC
Racha de viento máxima en m/sg (hora)
DESCASC
Velocidad máxima media en intervalos de 10 minutos(hora)
DESCASC
Precipitaciones diarias en mm
DESCASC
Precipitaciones de 00:00 a 06:00 en mm
DESCASC
Precipitaciones de 06:00 a 12:00 en mm
DESCASC
Precipitaciones de 12:00 a 18:00 en mm
DESCASC
Precipitaciones de 18:00 a 24:00 en mm
DESCASC
22-01-2020 11.6 (14:30) 4.1 (00:00) 7.9 6.39 (01:00) 2.78 (01:20) 5.8 2 3.6 0.2 0
21-01-2020 8.9 (13:50) 3 (23:20) 5.9 10.56 (11:10) 3.61 (01:40) 0.8 0 0.8 0 0
20-01-2020 9.1 (15:00) 3.5 (08:50) 6.3 12.5 (06:20) 5 (18:50) 0 0 0 0 0
19-01-2020 10.8 (00:10) 5.2 (00:00) 8 11.67 (20:30) 4.72 (00:10) 1 0.6 0 0.2 0.2
18-01-2020 11.7 (19:20) 5.2 (00:00) 8.4 7.5 (23:59) 3.33 (23:59) 8 0 3.6 4.2 0.2
17-01-2020 16.4 (16:10) 5.9 (00:00) 11.1 5.83 (15:00) 3.06 (17:20) 0 0 0 0 0
16-01-2020 17 (15:00) 2.8 (00:00) 9.9 5.83 (16:50) 2.78 (13:50) 0.2 0 0.2 0 0
15-01-2020 14.1 (14:00) 1.5 (00:00) 7.8 6.39 (14:00) 3.61 (14:00) 0 0 0 0 0
14-01-2020 12.6 (15:10) 1.3 (00:00) 7 4.17 (18:40) 1.94 (17:00) 0.2 0 0.2 0 0
13-01-2020 13.9 (15:40) -1.7 (-00:0) 6.1 3.33 (15:20) 1.67 (15:20) 0.2 0 0.2 0 0
12-01-2020 15.1 (16:50) -1.7 (-00:0) 6.7 2.78 (16:50) 1.67 (17:00) 0 0 0 0 0
11-01-2020 14.7 (16:00) -0.5 (-00:0) 7.1 5.83 (12:50) 2.5 (14:30) 0 0 0 0 0
10-01-2020 13.8 (15:50) 3.1 (00:00) 8.5 7.22 (17:30) 3.33 (16:00) 0 0 0 0 0
09-01-2020 15.4 (16:00) 0.1 (00:00) 7.7 4.17 (15:20) 2.5 (16:10) 0.2 0 0.2 0 0
08-01-2020 18.9 (16:20) -1.3 (-00:0) 8.8 1.39 (15:30) 0.83 (15:30) 0 0 0 0 0
07-01-2020 17.8 (16:10) -0.5 (-00:0) 8.6 2.78 (17:10) 1.39 (17:10) 0.2 0 0.2 0 0
06-01-2020 15.9 (17:00) 0.9 (00:00) 8.4 1.94 (14:40) 1.11 (15:20) 0.4 0.2 0.2 0 0
05-01-2020 15.3 (16:20) 0.4 (00:00) 7.9 3.33 (18:00) 1.94 (18:00) 0 0 0 0 0
04-01-2020 13.2 (17:10) 0.9 (00:00) 7 3.33 (11:40) 1.67 (11:50) 0 0 0 0 0
03-01-2020 11.5 (14:40) 2.4 (00:00) 7 5 (14:50) 2.5 (14:10) 0.2 0 0.2 0 0
02-01-2020 16.4 (16:00) 3 (00:00) 9.7 4.17 (14:40) 1.39 (14:40) 0.2 0 0.2 0 0
01-01-2020 17.5 (16:20) 1.9 (00:00) 9.7 1.39 (15:10) 0.83 (15:10) 0.4 0.2 0.2 0 0
31-12-2019 -- (--) -- (--) -- -- (--) -- (--) -- -- -- 0 0
30-12-2019 -- (--) -- (--) -- -- (--) -- (--) -- 0 0.2 0 --
29-12-2019 18.6 (16:20) 3.3 (00:00) 11 2.5 (14:50) 1.39 (14:00) 0.2 0 0.2 0 0
28-12-2019 21.4 (16:20) 2.8 (00:00) 12.1 1.67 (13:40) 1.11 (13:40) 0.2 0 0.2 0 0
27-12-2019 21.3 (16:20) 4 (00:00) 12.6 2.5 (14:30) 1.39 (14:30) 0 0 0 0 0
26-12-2019 19.9 (15:40) 3.7 (00:00) 11.8 4.44 (15:10) 2.5 (16:30) 0 0 0 0 0
25-12-2019 20.8 (16:20) 2.8 (00:00) 11.8 1.67 (12:50) 1.11 (14:50) 0.2 0 0.2 0 0

Gráficas

Temp. máximas Temp. mínimas Temp. medias Precipitaciones Rachas de viento máximas Velocidades máximas media en intervalos de 10 minutos

Datos horarios

Fecha y hora oficial Temperatura (ºC) Velocidad del viento (km/h) Dirección del viento Racha (km/h) Dirección de racha Precipitación (mm) Presión (hPa) Tendencia (hPa) Humedad (%)
2020-01-23 23:00:00 8 3 Este 7 Este 1.6 -- -- 93
2020-01-23 22:00:00 8.1 2 Este 6 Sur 1 -- -- 93
2020-01-23 21:00:00 8.4 0 Calma 11 Sudeste 0.2 -- -- 90
2020-01-23 20:00:00 8.2 0 Calma 6 Sudeste 0 -- -- 90
2020-01-23 19:00:00 8.7 3 Este 6 Sudeste 0.2 -- -- 88
2020-01-23 18:00:00 9.3 2 Sudeste 18 Sudeste 0 -- -- 84
2020-01-23 17:00:00 9.7 9 Sudeste 24 Sudeste 0 -- -- 81
2020-01-23 16:00:00 9.8 11 Sudeste 22 Sudeste 0 -- -- 82
2020-01-23 15:00:00 9.2 7 Sudeste 15 Sudeste 0.2 -- -- 87
2020-01-23 14:00:00 9.4 9 Sudeste 23 Sudeste 0.2 -- -- 87
2020-01-23 13:00:00 9.5 7 Sudeste 22 Sudeste 0 -- -- 85
2020-01-23 12:00:00 9 9 Sudeste 19 Sudeste 0.2 -- -- 84
2020-01-23 11:00:00 8.2 7 Sudeste 16 Este 0 -- -- 89
2020-01-23 10:00:00 7.3 2 Sudeste 12 Sudeste 0 -- -- 91
2020-01-23 09:00:00 6.9 3 Sur 15 Este 0.2 -- -- 92
2020-01-23 08:00:00 6.8 4 Sudeste 15 Este 1 -- -- 93
2020-01-23 07:00:00 6.9 2 Sudoeste 5 Sur 0.6 -- -- 92
2020-01-23 06:00:00 6.7 2 Norte 4 Sudoeste 0 -- -- 92
2020-01-23 05:00:00 6.9 0 Calma 8 Sudeste 0.6 -- -- 91
2020-01-23 04:00:00 7 5 Sudeste 8 Sudeste 0.4 -- -- 90
2020-01-23 03:00:00 7.3 0 Calma 3 Sudeste 0.4 -- -- 91
2020-01-23 02:00:00 7.4 2 Sudeste 10 Sudeste 0 -- -- 87
2020-01-23 01:00:00 8 5 Sudeste 12 Sudeste 0 -- -- 81
2020-01-23 00:00:00 8.2 3 Sudeste 8 Sudeste 0 -- -- 84
2020-01-22 23:00:00 8.3 2 Sudeste 6 Este 0 -- -- 81
2020-01-22 22:00:00 9 3 Sudeste 9 Sudeste 0 -- -- 77
2020-01-22 21:00:00 9.2 3 Sudeste 13 Sudeste 0 -- -- 74
2020-01-22 20:00:00 9 5 Sudeste 13 Sudeste 0 -- -- 76
2020-01-22 19:00:00 8.9 2 Este 10 Este 0 -- -- 79
2020-01-22 18:00:00 10.5 5 Este 19 Sudeste 0 -- -- 69
2020-01-22 17:00:00 11.2 7 Este 17 Este 0 -- -- 64
2020-01-22 16:00:00 11.2 9 Este 16 Sudeste 0 -- -- 66
2020-01-22 15:00:00 11.4 8 Este 18 Este 0.2 -- -- 65
2020-01-22 14:00:00 11.2 6 Este 18 Este 0 -- -- 69
2020-01-22 13:00:00 10.1 6 Sudeste 17 Este 0 -- -- 77
2020-01-22 12:00:00 9.5 5 Sudeste 18 Este 0 -- -- 79
2020-01-22 11:00:00 7.9 0 Calma 15 Este 0 -- -- 90
2020-01-22 10:00:00 6.9 6 Sudeste 19 Sudeste 0.4 -- -- 91
2020-01-22 09:00:00 6 6 Sudeste 15 Este 1 -- -- 94
2020-01-22 08:00:00 5.9 3 Este 9 Sudeste 1.4 -- -- 93
2020-01-22 07:00:00 6 3 Sudeste 9 Sudeste 0.8 -- -- 94
2020-01-22 06:00:00 5.8 0 Calma 5 Este 0.4 -- -- 94
2020-01-22 05:00:00 5.9 0 Calma 9 Sudeste 0.6 -- -- 93
2020-01-22 04:00:00 5.9 0 Calma 9 Este 0.4 -- -- 93
2020-01-22 03:00:00 6 0 Calma 19 Este 0.6 -- -- 91
2020-01-22 02:00:00 6.5 5 Este 23 Este 0 -- -- 87
2020-01-22 01:00:00 5.7 5 Sudeste 23 Sudeste 0 -- -- 89
2020-01-22 00:00:00 4.1 0 Calma 3 Nordeste 0 -- -- 93
2020-01-21 23:00:00 3.6 0 Calma 5 Este 0 -- -- 87
2020-01-21 22:00:00 4.4 0 Calma 8 Nordeste 0 -- -- 86
2020-01-21 21:00:00 5.4 0 Calma 8 Este 0 -- -- 83
2020-01-21 20:00:00 6.9 2 Norte 14 Nordeste 0 -- -- 80
2020-01-21 19:00:00 7.2 5 Nordeste 19 Nordeste 0 -- -- 77
2020-01-21 18:00:00 7.7 7 Norte 22 Norte 0 -- -- 72
2020-01-21 17:00:00 8.3 5 Norte 17 Norte 0 -- -- 67
2020-01-21 16:00:00 8.5 7 Nordeste 17 Nordeste 0 -- -- 67
2020-01-21 15:00:00 8.6 4 Noroeste 21 Noroeste 0 -- -- 66
2020-01-21 14:00:00 8.9 9 Nordeste 22 Nordeste 0 -- -- 64
2020-01-21 13:00:00 7.5 7 Noroeste 26 Noroeste 0 -- -- 70
2020-01-21 12:00:00 6.7 6 Noroeste 38 Noroeste 0 -- -- 71
2020-01-21 11:00:00 5.9 6 Norte 27 Norte 0.6 -- -- 77
2020-01-21 10:00:00 6 5 Noroeste 22 Noroeste 0.2 -- -- 74
2020-01-21 09:00:00 6.2 5 Oeste 20 Noroeste 0 -- -- 68
2020-01-21 08:00:00 6 5 Norte 19 Noroeste 0 -- -- 71
2020-01-21 07:00:00 5.6 8 Norte 24 Noroeste 0 -- -- 72
2020-01-21 06:00:00 5.9 11 Norte 27 Nordeste 0 -- -- 68
2020-01-21 05:00:00 6.4 5 Noroeste 18 Oeste 0 -- -- 68
2020-01-21 04:00:00 6.6 7 Oeste 26 Nordeste 0 -- -- 69
2020-01-21 03:00:00 6.8 6 Nordeste 24 Este 0 -- -- 68
2020-01-21 02:00:00 6.9 10 Nordeste 32 Este 0 -- -- 69
2020-01-21 01:00:00 6.7 10 Nordeste 35 Este 0 -- -- 70
2020-01-21 00:00:00 6.7 11 Nordeste 32 Este 0 -- -- 70
2020-01-20 23:00:00 6.4 6 Norte 29 Norte 0 -- -- 72
2020-01-20 22:00:00 6.2 9 Norte 28 Norte 0 -- -- 72
2020-01-20 21:00:00 6.8 9 Nordeste 32 Norte 0 -- -- 69
2020-01-20 20:00:00 7.6 10 Nordeste 29 Este 0 -- -- 67
2020-01-20 19:00:00 7.5 15 Este 40 Nordeste 0 -- -- 65
2020-01-20 18:00:00 7.4 15 Este 38 Este 0 -- -- 63
2020-01-20 17:00:00 8.2 11 Nordeste 39 Nordeste 0 -- -- 58
2020-01-20 16:00:00 8.7 14 Nordeste 36 Nordeste 0 -- -- 54
2020-01-20 15:00:00 9.1 10 Nordeste 41 Este 0 -- -- 54
2020-01-20 14:00:00 7.2 15 Nordeste 39 Nordeste 0 -- -- 58
2020-01-20 13:00:00 6.3 10 Nordeste 36 Este 0 -- -- 60
2020-01-20 12:00:00 5.4 12 Nordeste 35 Nordeste 0 -- -- 58
2020-01-20 11:00:00 4.6 13 Nordeste 27 Norte 0 -- -- 56
2020-01-20 10:00:00 3.8 8 Norte 32 Noroeste 0 -- -- 59
2020-01-20 09:00:00 3.5 5 Este 23 Este 0 -- -- 63
2020-01-20 08:00:00 4.2 8 Este 32 Este 0 -- -- 57
2020-01-20 07:00:00 4.5 4 Oeste 45 Nordeste 0 -- -- 56
2020-01-20 06:00:00 4.9 6 Oeste 37 Este 0 -- -- 52
2020-01-20 05:00:00 5.2 9 Nordeste 32 Norte 0 -- -- 49
2020-01-20 04:00:00 5.3 4 Sur 30 Norte 0 -- -- 49
2020-01-20 03:00:00 5.2 5 Norte 28 Norte 0 -- -- 55
2020-01-20 02:00:00 5.1 8 Nordeste 36 Norte 0 -- -- 58
2020-01-20 01:00:00 4.9 16 Nordeste 43 Norte 0 -- -- 65
2020-01-20 00:00:00 5.2 12 Norte 39 Noroeste 0 -- -- 65
2020-01-19 23:00:00 5.6 12 Norte 31 Este 0 -- -- 68
2020-01-19 22:00:00 5.4 6 Noroeste 39 Nordeste 0 -- -- 70
2020-01-19 21:00:00 5.8 12 Nordeste 42 Norte 0.2 -- -- 72
2020-01-19 20:00:00 6.2 16 Norte 38 Norte 0 -- -- 72
2020-01-19 19:00:00 6.9 9 Norte 38 Norte 0 -- -- 65
2020-01-19 18:00:00 9.6 6 Noroeste 40 Norte 0 -- -- 48
2020-01-19 17:00:00 9.5 12 Norte 39 Noroeste 0 -- -- 55
2020-01-19 16:00:00 9.5 8 Noroeste 27 Nordeste 0 -- -- 64
2020-01-19 15:00:00 9 12 Norte 34 Noroeste 0 -- -- 73
2020-01-19 14:00:00 10.1 13 Noroeste 27 Noroeste 0 -- -- 66
2020-01-19 13:00:00 10 10 Noroeste 34 Noroeste 0.2 -- -- 66
2020-01-19 12:00:00 10.6 10 Noroeste 21 Noroeste 0 -- -- 77
2020-01-19 11:00:00 9.1 11 Noroeste 22 Norte 0 -- -- 78
2020-01-19 10:00:00 7.7 9 Noroeste 18 Noroeste 0 -- -- 87
2020-01-19 09:00:00 7.2 7 Noroeste 18 Noroeste 0 -- -- 86
2020-01-19 08:00:00 6.9 6 Noroeste 21 Oeste 0 -- -- 90
2020-01-19 07:00:00 6.5 8 Noroeste 24 Oeste 0 -- -- 90
2020-01-19 06:00:00 5.5 2 Nordeste 9 Noroeste 0 -- -- 92
2020-01-19 05:00:00 7.4 2 Norte 19 Noroeste 0 -- -- 88
2020-01-19 04:00:00 8 8 Noroeste 23 Noroeste 0.2 -- -- 89
2020-01-19 03:00:00 8.6 5 Noroeste 21 Noroeste 0.4 -- -- 90
2020-01-19 02:00:00 8.3 5 Norte 18 Noroeste 0 -- -- 85
2020-01-19 01:00:00 9.6 4 Noroeste 31 Noroeste 0 -- -- 84
2020-01-19 00:00:00 10.6 12 Noroeste 27 Noroeste 0 -- -- 90
2020-01-18 23:00:00 9.3 3 Norte 8 Noroeste 0 -- -- 94
2020-01-18 22:00:00 10.6 4 Sudoeste 12 Sudoeste 0 -- -- 93
2020-01-18 21:00:00 11.5 0 Calma 16 Oeste 0 -- -- 93
2020-01-18 20:00:00 11.5 3 Nordeste 12 Oeste 0 -- -- 94
2020-01-18 19:00:00 11.5 4 Sudoeste 14 Sur 0.2 -- -- 95
2020-01-18 18:00:00 10.9 3 Este 6 Este 0.2 -- -- 96
2020-01-18 17:00:00 10.4 3 Sudeste 6 Este 0.4 -- -- 95
2020-01-18 16:00:00 9.9 3 Este 9 Este 0.6 -- -- 95
2020-01-18 15:00:00 9.5 4 Este 12 Sudeste 0.8 -- -- 94
2020-01-18 14:00:00 9.5 4 Sudeste 13 Sur 1.6 -- -- 93
2020-01-18 13:00:00 9.7 5 Sudeste 19 Sudeste 0.6 -- -- 91
2020-01-18 12:00:00 9.3 8 Sudeste 19 Sudeste 0.4 -- -- 92
2020-01-18 11:00:00 9.4 3 Sudeste 14 Este 0.2 -- -- 93
2020-01-18 10:00:00 9.1 7 Este 13 Este 1.2 -- -- 96
2020-01-18 09:00:00 8 0 Calma 5 Este 1.6 -- -- 95
2020-01-18 08:00:00 7.7 2 Noroeste 6 Noroeste 0.2 -- -- 94
2020-01-18 07:00:00 7.6 2 Sudeste 8 Oeste 0 -- -- 93
2020-01-18 06:00:00 7.2 3 Norte 6 Sudoeste 0 -- -- 94
2020-01-18 05:00:00 6.8 0 Calma 6 Este 0 -- -- 94
2020-01-18 04:00:00 6.4 0 Calma 3 Norte 0 -- -- 94
2020-01-18 03:00:00 6.5 0 Calma 6 Este 0 -- -- 94
2020-01-18 02:00:00 6 0 Calma 4 Noroeste 0 -- -- 94
2020-01-18 01:00:00 5.5 0 Calma 5 Este 0 -- -- 93
2020-01-18 00:00:00 5.9 0 Calma 3 Norte 0 -- -- 90
2020-01-17 23:00:00 6.9 3 Norte 4 Noroeste 0 -- -- 90
2020-01-17 22:00:00 7.2 0 Calma 3 Sudeste 0 -- -- 88
2020-01-17 21:00:00 8.2 0 Calma 5 Sudoeste 0 -- -- 84
2020-01-17 20:00:00 8.8 2 Noroeste 4 Noroeste 0 -- -- 81
2020-01-17 19:00:00 11.1 0 Calma 18 Noroeste 0 -- -- 70
2020-01-17 18:00:00 14.6 8 Noroeste 18 Oeste 0 -- -- 58
2020-01-17 17:00:00 15.8 10 Oeste 18 Oeste 0 -- -- 54
2020-01-17 16:00:00 16.3 10 Noroeste 19 Noroeste 0 -- -- 49
2020-01-17 15:00:00 16.3 9 Norte 21 Norte 0 -- -- 49
2020-01-17 14:00:00 15.4 6 Noroeste 13 Oeste 0 -- -- 56
2020-01-17 13:00:00 14.5 5 Noroeste 13 Sudoeste 0 -- -- 63
2020-01-17 12:00:00 13.4 8 Oeste 14 Oeste 0 -- -- 72
2020-01-17 11:00:00 11.9 4 Sur 6 Sur 0 -- -- 81
2020-01-17 10:00:00 10.1 0 Calma 8 Sudoeste 0 -- -- 85
2020-01-17 09:00:00 10.1 5 Este 11 Este 0 -- -- 87
2020-01-17 08:00:00 10.3 2 Sur 6 Oeste 0 -- -- 88
2020-01-17 07:00:00 10 2 Sudeste 5 Sur 0 -- -- 88
2020-01-17 06:00:00 9.9 0 Calma 6 Este 0 -- -- 88
2020-01-17 05:00:00 10.5 3 Sudoeste 10 Oeste 0 -- -- 85
2020-01-17 04:00:00 10 2 Sudoeste 8 Este 0 -- -- 82
2020-01-17 03:00:00 9.8 3 Este 10 Este 0 -- -- 77
2020-01-17 02:00:00 10.1 3 Este 16 Sur 0 -- -- 68
2020-01-17 01:00:00 9.6 3 Este 8 Sudeste 0 -- -- 65
2020-01-17 00:00:00 7.3 0 Calma 5 Sur 0 -- -- 74
2020-01-16 23:00:00 7.2 0 Calma 6 Sudeste 0 -- -- 76
2020-01-16 22:00:00 7.3 0 Calma 6 Sudeste 0 -- -- 74
2020-01-16 21:00:00 6.6 0 Calma 4 Este 0 -- -- 75
2020-01-16 20:00:00 8.5 0 Calma 7 Sur 0 -- -- 63
2020-01-16 19:00:00 9.4 2 Sudeste 12 Oeste 0 -- -- 62
2020-01-16 18:00:00 14.5 5 Sudoeste 15 Sudoeste 0 -- -- 44
2020-01-16 17:00:00 15.6 8 Sudoeste 21 Sudoeste 0 -- -- 40
2020-01-16 16:00:00 17 10 Sur 19 Sur 0 -- -- 36
2020-01-16 15:00:00 17 6 Sur 16 Sudoeste 0 -- -- 41
2020-01-16 14:00:00 16.3 8 Sudoeste 18 Sudoeste 0 -- -- 45
2020-01-16 13:00:00 14.6 4 Sudeste 8 Este 0 -- -- 53
2020-01-16 12:00:00 10.6 0 Calma 5 Sudoeste 0 -- -- 84
2020-01-16 11:00:00 6.7 0 Calma 5 Sudeste 0 -- -- 98
2020-01-16 10:00:00 4.8 0 Calma 2 Oeste 0 -- -- 97
2020-01-16 09:00:00 4.4 0 Calma 4 Norte 0.2 -- -- 97
2020-01-16 08:00:00 3.5 2 Este 3 Este 0 -- -- 96
2020-01-16 07:00:00 3 0 Calma 2 Noroeste 0 -- -- 95
2020-01-16 06:00:00 3.4 0 Calma 3 Este 0 -- -- 95
2020-01-16 05:00:00 4.1 0 Calma 3 Nordeste 0 -- -- 94
2020-01-16 04:00:00 5.3 0 Calma 3 Este 0 -- -- 93
2020-01-16 03:00:00 7.2 0 Calma 4 Este 0 -- -- 92
2020-01-16 02:00:00 8.3 0 Calma 2 Sudeste 0 -- -- 94
2020-01-16 01:00:00 8.3 0 Calma 3 Este 0 -- -- 93
2020-01-16 00:00:00 8.4 0 Calma 3 Este 0 -- -- 93
2020-01-15 23:00:00 8.7 0 Calma 3 Este 0 -- -- 93
2020-01-15 22:00:00 8.7 2 Este 4 Este 0 -- -- 93
2020-01-15 21:00:00 8.7 0 Calma 3 Este 0 -- -- 90
2020-01-15 20:00:00 10 3 Este 6 Sudeste 0 -- -- 86
2020-01-15 19:00:00 10.4 2 Este 4 Sudoeste 0 -- -- 82
2020-01-15 18:00:00 12.6 0 Calma 10 Sudoeste 0 -- -- 76
2020-01-15 17:00:00 13 5 Sudoeste 17 Sudoeste 0 -- -- 72
2020-01-15 16:00:00 13.9 5 Sur 15 Sudoeste 0 -- -- 67
2020-01-15 15:00:00 13.8 5 Sudoeste 16 Sudoeste 0 -- -- 66
2020-01-15 14:00:00 14.1 13 Sudoeste 23 Sudoeste 0 -- -- 63
2020-01-15 13:00:00 13.6 5 Sur 11 Sur 0 -- -- 59
2020-01-15 12:00:00 10.7 3 Sudeste 6 Sur 0 -- -- 71
2020-01-15 11:00:00 6.3 0 Calma 4 Oeste 0 -- -- 97
2020-01-15 10:00:00 4 0 Calma 4 Norte 0 -- -- 97
2020-01-15 09:00:00 1.9 0 Calma 3 Este 0 -- -- 97
2020-01-15 08:00:00 3.1 0 Calma 3 Nordeste 0 -- -- 96
2020-01-15 07:00:00 3 2 Nordeste 4 Norte 0 -- -- 96
2020-01-15 06:00:00 2.2 0 Calma 3 Nordeste 0 -- -- 95
2020-01-15 05:00:00 1.9 0 Calma 3 Este 0 -- -- 95
2020-01-15 04:00:00 2.3 0 Calma 3 Sur 0 -- -- 94
2020-01-15 03:00:00 3 0 Calma 3 Norte 0 -- -- 93
2020-01-15 02:00:00 3.4 0 Calma 4 Este 0 -- -- 92
2020-01-15 01:00:00 4.3 2 Sudeste 4 Sur 0 -- -- 91
2020-01-15 00:00:00 5.1 2 Noroeste 6 Oeste 0 -- -- 90
2020-01-14 23:00:00 4.4 0 Calma 6 Noroeste 0 -- -- 87
2020-01-14 22:00:00 5.4 3 Sudeste 5 Este 0 -- -- 84
2020-01-14 21:00:00 7 2 Este 5 Este 0 -- -- 78
2020-01-14 20:00:00 6.8 2 Este 8 Este 0 -- -- 77
2020-01-14 19:00:00 9.5 4 Sudeste 15 Sur 0 -- -- 69
2020-01-14 18:00:00 10.4 4 Sur 15 Sudoeste 0 -- -- 66
2020-01-14 17:00:00 12 7 Sur 13 Sur 0 -- -- 61
2020-01-14 16:00:00 12.5 6 Sur 12 Sur 0 -- -- 58
2020-01-14 15:00:00 12.4 4 Sur 13 Sudoeste 0 -- -- 58
2020-01-14 14:00:00 11.6 3 Sur 8 Sur 0 -- -- 61
2020-01-14 13:00:00 8.1 0 Calma 5 Sudoeste 0 -- -- 97
2020-01-14 12:00:00 4.9 0 Calma 4 Sudoeste 0 -- -- 98
2020-01-14 11:00:00 3.7 0 Calma 4 Sudoeste 0 -- -- 97
2020-01-14 10:00:00 3.1 0 Calma 2 Oeste 0 -- -- 97
2020-01-14 09:00:00 2.9 2 Noroeste 4 Noroeste 0.2 -- -- 97
2020-01-14 08:00:00 3.1 0 Calma 3 Nordeste 0 -- -- 97
2020-01-14 07:00:00 3 0 Calma 3 Noroeste 0 -- -- 97
2020-01-14 06:00:00 2.9 0 Calma 4 Norte 0 -- -- 97
2020-01-14 05:00:00 2.7 0 Calma 3 Norte 0 -- -- 97
2020-01-14 04:00:00 2.5 3 Norte 5 Noroeste 0 -- -- 96
2020-01-14 03:00:00 3 0 Calma 5 Este 0 -- -- 96
2020-01-14 02:00:00 3.1 0 Calma 4 Nordeste 0 -- -- 96
2020-01-14 01:00:00 2.1 0 Calma 3 Noroeste 0 -- -- 95
2020-01-14 00:00:00 1.5 0 Calma 2 Este 0 -- -- 93
2020-01-13 23:00:00 2.3 0 Calma 3 Noroeste 0 -- -- 92
2020-01-13 22:00:00 3.6 4 Noroeste 6 Noroeste 0 -- -- 92
2020-01-13 21:00:00 4.1 0 Calma 4 Norte 0 -- -- 87
2020-01-13 20:00:00 5.7 0 Calma 5 Este 0 -- -- 83
2020-01-13 19:00:00 8.1 2 Sudeste 7 Sudeste 0 -- -- 74
2020-01-13 18:00:00 11.7 3 Sudeste 12 Sudoeste 0 -- -- 62
2020-01-13 17:00:00 13.5 4 Sur 12 Sur 0 -- -- 55
2020-01-13 16:00:00 13.8 5 Sur 12 Sur 0 -- -- 53
2020-01-13 15:00:00 13.5 3 Sudoeste 9 Sudoeste 0 -- -- 51
2020-01-13 14:00:00 12.3 4 Sudeste 9 Sudeste 0 -- -- 60
2020-01-13 13:00:00 9.7 2 Sur 6 Sudoeste 0 -- -- 78
2020-01-13 12:00:00 5 2 Sur 4 Sudeste 0 -- -- 98
2020-01-13 11:00:00 1.7 0 Calma 4 Sudoeste 0 -- -- 97
2020-01-13 10:00:00 0.6 0 Calma 3 Sudeste 0 -- -- 97
2020-01-13 09:00:00 0.2 0 Calma 4 Este 0 -- -- 97
2020-01-13 08:00:00 0.5 0 Calma 3 Norte 0.2 -- -- 96
2020-01-13 07:00:00 0.7 2 Norte 4 Norte 0 -- -- 96
2020-01-13 06:00:00 0.1 2 Este 3 Este 0 -- -- 96
2020-01-13 05:00:00 -1.6 0 Calma 3 Este 0 -- -- 94
2020-01-13 04:00:00 -1.4 0 Calma 3 Noroeste 0 -- -- 94
2020-01-13 03:00:00 -0.8 2 Noroeste 4 Noroeste 0 -- -- 94
2020-01-13 02:00:00 -0.5 0 Calma 2 Este 0 -- -- 93
2020-01-13 01:00:00 0.1 0 Calma 3 Norte 0 -- -- 93
2020-01-13 00:00:00 0.8 0 Calma 3 Este 0 -- -- 92
2020-01-12 23:00:00 1.7 0 Calma 3 Sudeste 0 -- -- 92
2020-01-12 22:00:00 2.7 3 Este 3 Este 0 -- -- 91
2020-01-12 21:00:00 3.6 0 Calma 2 Sudoeste 0 -- -- 89
2020-01-12 20:00:00 5.1 0 Calma 3 Oeste 0 -- -- 82
2020-01-12 19:00:00 7.5 0 Calma 4 Este 0 -- -- 69
2020-01-12 18:00:00 13.8 3 Sudoeste 9 Oeste 0 -- -- 55
2020-01-12 17:00:00 15.1 6 Oeste 10 Oeste 0 -- -- 42
2020-01-12 16:00:00 14.8 5 Oeste 10 Sudoeste 0 -- -- 42
2020-01-12 15:00:00 14.1 3 Oeste 8 Sudoeste 0 -- -- 43
2020-01-12 14:00:00 12.7 4 Sur 6 Sudoeste 0 -- -- 55
2020-01-12 13:00:00 9.1 3 Sudoeste 5 Sudoeste 0 -- -- 75
2020-01-12 12:00:00 5.7 0 Calma 5 Sur 0 -- -- 91
2020-01-12 11:00:00 2.1 0 Calma 4 Sudeste 0 -- -- 97
2020-01-12 10:00:00 0.5 0 Calma 3 Este 0 -- -- 96
2020-01-12 09:00:00 0.1 0 Calma 3 Este 0 -- -- 96
2020-01-12 08:00:00 -1 0 Calma 2 Nordeste 0 -- -- 96
2020-01-12 07:00:00 -1.6 0 Calma 2 Noroeste 0 -- -- 95
2020-01-12 06:00:00 -1.3 2 Este 2 Este 0 -- -- 94
2020-01-12 05:00:00 -1 0 Calma 2 Norte 0 -- -- 94
2020-01-12 04:00:00 -0.6 0 Calma 4 Noroeste 0 -- -- 94
2020-01-12 03:00:00 -0.3 0 Calma 2 Noroeste 0 -- -- 94
2020-01-12 02:00:00 0.1 0 Calma 3 Noroeste 0 -- -- 93
2020-01-12 01:00:00 0.7 0 Calma 2 Este 0 -- -- 93
2020-01-12 00:00:00 1.4 0 Calma 2 Noroeste 0 -- -- 92
2020-01-11 23:00:00 2 0 Calma 3 Norte 0 -- -- 91
2020-01-11 22:00:00 3 2 Norte 4 Norte 0 -- -- 89
2020-01-11 21:00:00 3.9 0 Calma 3 Oeste 0 -- -- 87
2020-01-11 20:00:00 5.3 0 Calma 4 Noroeste 0 -- -- 79
2020-01-11 19:00:00 8 0 Calma 3 Oeste 0 -- -- 72
2020-01-11 18:00:00 13.7 0 Calma 7 Sudoeste 0 -- -- 49
2020-01-11 17:00:00 14.7 5 Sudoeste 12 Oeste 0 -- -- 44
2020-01-11 16:00:00 14.7 6 Sudoeste 13 Oeste 0 -- -- 44
2020-01-11 15:00:00 13.9 6 Sudeste 19 Este 0 -- -- 44
2020-01-11 14:00:00 13.3 6 Sur 16 Este 0 -- -- 48
2020-01-11 13:00:00 12.1 6 Este 21 Este 0 -- -- 51
2020-01-11 12:00:00 9.1 4 Sudoeste 7 Sudoeste 0 -- -- 61
2020-01-11 11:00:00 6.5 4 Sudoeste 8 Noroeste 0 -- -- 74
2020-01-11 10:00:00 3 0 Calma 4 Noroeste 0 -- -- 89
2020-01-11 09:00:00 -0.3 0 Calma 2 Norte 0 -- -- 93
2020-01-11 08:00:00 -0.1 0 Calma 4 Norte 0 -- -- 91
2020-01-11 07:00:00 0.5 0 Calma 4 Este 0 -- -- 89
2020-01-11 06:00:00 2.1 4 Norte 7 Noroeste 0 -- -- 84
2020-01-11 05:00:00 2.1 0 Calma 7 Nordeste 0 -- -- 87
2020-01-11 04:00:00 2.2 3 Norte 8 Noroeste 0 -- -- 83
2020-01-11 03:00:00 2.5 0 Calma 8 Norte 0 -- -- 82
2020-01-11 02:00:00 2.8 0 Calma 7 Norte 0 -- -- 79
2020-01-11 01:00:00 4.9 3 Nordeste 13 Nordeste 0 -- -- 70
2020-01-11 00:00:00 5.2 3 Nordeste 12 Noroeste 0 -- -- 69
2020-01-10 23:00:00 5.7 4 Norte 10 Norte 0 -- -- 66
2020-01-10 22:00:00 7.4 4 Norte 14 Nordeste 0 -- -- 60
2020-01-10 21:00:00 6.5 3 Sudeste 14 Sudeste 0 -- -- 62
2020-01-10 20:00:00 8.8 2 Este 22 Este 0 -- -- 54
2020-01-10 19:00:00 9.7 4 Nordeste 18 Norte 0 -- -- 52
2020-01-10 18:00:00 12 11 Norte 26 Este 0 -- -- 45
2020-01-10 17:00:00 13.4 6 Norte 23 Este 0 -- -- 43
2020-01-10 16:00:00 13.8 12 Norte 25 Noroeste 0 -- -- 44
2020-01-10 15:00:00 13.2 8 Norte 24 Norte 0 -- -- 53
2020-01-10 14:00:00 12.8 6 Nordeste 17 Nordeste 0 -- -- 58
2020-01-10 13:00:00 12.1 6 Este 14 Nordeste 0 -- -- 69
2020-01-10 12:00:00 9.2 5 Noroeste 13 Noroeste 0 -- -- 86
2020-01-10 11:00:00 7.8 6 Oeste 17 Noroeste 0 -- -- 90
2020-01-10 10:00:00 5.4 0 Calma 7 Norte 0 -- -- 95
2020-01-10 09:00:00 6.2 2 Oeste 10 Noroeste 0 -- -- 93
2020-01-10 08:00:00 6.3 4 Noroeste 8 Norte 0 -- -- 95
2020-01-10 07:00:00 7.1 3 Noroeste 6 Noroeste 0 -- -- 95
2020-01-10 06:00:00 7.6 5 Noroeste 10 Noroeste 0 -- -- 96
2020-01-10 05:00:00 6.7 0 Calma 2 Sudoeste 0 -- -- 96
2020-01-10 04:00:00 6.2 2 Sudeste 4 Sudeste 0 -- -- 96
2020-01-10 03:00:00 5.9 0 Calma 2 Este 0 -- -- 96
2020-01-10 02:00:00 5.2 0 Calma 5 Este 0 -- -- 96
2020-01-10 01:00:00 3.4 0 Calma 5 Noroeste 0 -- -- 94
2020-01-10 00:00:00 4.3 0 Calma 2 Este 0 -- -- 94
2020-01-09 23:00:00 4.3 0 Calma 5 Este 0 -- -- 93
2020-01-09 22:00:00 4.9 0 Calma 2 Norte 0 -- -- 92
2020-01-09 21:00:00 5.7 0 Calma 4 Norte 0 -- -- 90
2020-01-09 20:00:00 7 0 Calma 5 Sudeste 0 -- -- 86
2020-01-09 19:00:00 9.7 2 Este 8 Sudeste 0 -- -- 79
2020-01-09 18:00:00 13.6 3 Sudoeste 11 Sudoeste 0 -- -- 68
2020-01-09 17:00:00 15.3 6 Oeste 15 Oeste 0 -- -- 56
2020-01-09 16:00:00 15.4 7 Oeste 15 Noroeste 0 -- -- 58
2020-01-09 15:00:00 15.1 5 Oeste 12 Noroeste 0 -- -- 56
2020-01-09 14:00:00 14.3 4 Sudeste 8 Sur 0 -- -- 61
2020-01-09 13:00:00 11.6 3 Sudeste 7 Sudeste 0 -- -- 76
2020-01-09 12:00:00 7 0 Calma 5 Oeste 0 -- -- 98
2020-01-09 11:00:00 3.9 0 Calma 3 Este 0 -- -- 97
2020-01-09 10:00:00 2.9 0 Calma 4 Norte 0 -- -- 97
2020-01-09 09:00:00 2.3 0 Calma 4 Norte 0 -- -- 97
2020-01-09 08:00:00 1.2 0 Calma 3 Este 0.2 -- -- 97
2020-01-09 07:00:00 1.3 0 Calma 2 Nordeste 0 -- -- 96
2020-01-09 06:00:00 0.2 0 Calma 3 Sudeste 0 -- -- 95
2020-01-09 05:00:00 0.6 0 Calma 2 Este 0 -- -- 95
2020-01-09 04:00:00 1 0 Calma 2 Este 0 -- -- 94
2020-01-09 03:00:00 1.3 0 Calma 3 Este 0 -- -- 94
2020-01-09 02:00:00 1.6 0 Calma 4 Sudeste 0 -- -- 93
2020-01-09 01:00:00 2.1 0 Calma 3 Noroeste 0 -- -- 93
2020-01-09 00:00:00 2.7 0 Calma 2 Sudeste 0 -- -- 92
2020-01-08 23:00:00 3.4 0 Calma 3 Noroeste 0 -- -- 90
2020-01-08 22:00:00 4.4 0 Calma 3 Este 0 -- -- 89
2020-01-08 21:00:00 5.6 0 Calma 2 Este 0 -- -- 87
2020-01-08 20:00:00 7 0 Calma 3 Norte 0 -- -- 78
2020-01-08 19:00:00 9.4 0 Calma 4 Oeste 0 -- -- 62
2020-01-08 18:00:00 16.6 0 Calma 5 Noroeste 0 -- -- 51
2020-01-08 17:00:00 18.7 2 Sudoeste 5 Sudoeste 0 -- -- 44
2020-01-08 16:00:00 18.4 2 Sudoeste 5 Sudoeste 0 -- -- 37
2020-01-08 15:00:00 16.9 2 Sur 5 Sudeste 0 -- -- 39
2020-01-08 14:00:00 14.4 3 Sudoeste 5 Sur 0 -- -- 60
2020-01-08 13:00:00 10.8 3 Sudoeste 5 Sur 0 -- -- 75
2020-01-08 12:00:00 7.4 2 Sudoeste 5 Sudoeste 0 -- -- 85
2020-01-08 11:00:00 4 0 Calma 3 Sur 0 -- -- 97
2020-01-08 10:00:00 1.3 0 Calma 3 Noroeste 0 -- -- 97
2020-01-08 09:00:00 -1.2 0 Calma 2 Este 0 -- -- 96
2020-01-08 08:00:00 -1 2 Sudeste 4 Noroeste 0 -- -- 95
2020-01-08 07:00:00 -0.9 0 Calma 3 Noroeste 0 -- -- 95
2020-01-08 06:00:00 -0.4 -- -- -- -- 0 -- -- 95
2020-01-08 05:00:00 -0.2 0 Calma 3 Noroeste 0 -- -- 95
2020-01-08 04:00:00 0.2 2 Norte 2 Norte 0 -- -- 95
2020-01-08 03:00:00 0.5 0 Calma 3 Noroeste 0 -- -- 94
2020-01-08 02:00:00 1.1 0 Calma 3 Oeste 0 -- -- 94
2020-01-08 01:00:00 1.4 0 Calma 2 Este 0 -- -- 93
2020-01-08 00:00:00 2 0 Calma 3 Este 0 -- -- 93
2020-01-07 23:00:00 2.8 0 Calma 2 Sudeste 0 -- -- 92
2020-01-07 22:00:00 3.7 0 Calma 2 Este 0 -- -- 90
2020-01-07 21:00:00 5 0 Calma 2 Este 0 -- -- 89
2020-01-07 20:00:00 6.3 0 Calma 4 Noroeste 0 -- -- 82
2020-01-07 19:00:00 9.3 0 Calma 2 Noroeste 0 -- -- 75
2020-01-07 18:00:00 15.8 0 Calma 10 Oeste 0 -- -- 59
2020-01-07 17:00:00 17.6 4 Oeste 9 Oeste 0 -- -- 50
2020-01-07 16:00:00 17.7 2 Sudoeste 6 Sur 0 -- -- 48
2020-01-07 15:00:00 16.4 3 Sudoeste 5 Sudoeste 0 -- -- 57
2020-01-07 14:00:00 13.3 4 Sudoeste 6 Sudoeste 0 -- -- 67
2020-01-07 13:00:00 9.8 3 Sudoeste 8 Sur 0 -- -- 83
2020-01-07 12:00:00 5.9 3 Sur 6 Sudoeste 0 -- -- 98
2020-01-07 11:00:00 3 0 Calma 3 Sudoeste 0 -- -- 98
2020-01-07 10:00:00 1.5 0 Calma 2 Este 0.2 -- -- 97
2020-01-07 09:00:00 0.9 0 Calma 3 Norte 0 -- -- 97
2020-01-07 08:00:00 -0.2 2 Este 3 Nordeste 0 -- -- 97
2020-01-07 07:00:00 0.2 2 Noroeste 5 Noroeste 0 -- -- 96
2020-01-07 06:00:00 0.7 0 Calma 3 Este 0 -- -- 96
2020-01-07 05:00:00 0.5 0 Calma 4 Norte 0 -- -- 96
2020-01-07 04:00:00 0.5 0 Calma 5 Este 0 -- -- 95
2020-01-07 03:00:00 1 0 Calma 4 Noroeste 0 -- -- 95
2020-01-07 02:00:00 1.5 0 Calma 3 Norte 0 -- -- 95
2020-01-07 01:00:00 2.3 0 Calma 3 Norte 0 -- -- 95
2020-01-07 00:00:00 2.9 0 Calma 5 Este 0 -- -- 94
2020-01-06 23:00:00 3.3 0 Calma 4 Noroeste 0 -- -- 93
2020-01-06 22:00:00 4.1 0 Calma 3 Este 0 -- -- 92
2020-01-06 21:00:00 5 0 Calma 3 Oeste 0 -- -- 91
2020-01-06 20:00:00 6.3 0 Calma 2 Nordeste 0 -- -- 88
2020-01-06 19:00:00 8.5 0 Calma 4 Noroeste 0 -- -- 81
2020-01-06 18:00:00 14.3 0 Calma 5 Oeste 0 -- -- 66
2020-01-06 17:00:00 15.9 3 Oeste 5 Sudoeste 0 -- -- 54
2020-01-06 16:00:00 15.2 3 Sur 6 Sudoeste 0 -- -- 56
2020-01-06 15:00:00 13.5 3 Sur 7 Sudoeste 0 -- -- 65
2020-01-06 14:00:00 9.9 2 Sudoeste 6 Sudoeste 0 -- -- 89
2020-01-06 13:00:00 6.6 0 Calma 4 Sudoeste 0 -- -- 98
2020-01-06 12:00:00 3.9 0 Calma 3 Sudoeste 0 -- -- 98
2020-01-06 11:00:00 2.6 0 Calma 5 Sudeste 0 -- -- 98
2020-01-06 10:00:00 1.7 0 Calma 4 Noroeste 0.2 -- -- 98